sensor_id;sensor_type;location;lat;lon;timestamp;P1;durP1;ratioP1;P2;durP2;ratioP2
19973;SDS011;10148;47.694;9.442;2022-09-01T00:02:03;16.20;;;12.98;;
19973;SDS011;10148;47.694;9.442;2022-09-01T00:04:33;20.73;;;14.57;;
19973;SDS011;10148;47.694;9.442;2022-09-01T00:07:02;17.10;;;13.00;;
19973;SDS011;10148;47.694;9.442;2022-09-01T00:09:29;15.90;;;13.18;;
19973;SDS011;10148;47.694;9.442;2022-09-01T00:11:54;15.82;;;13.60;;
19973;SDS011;10148;47.694;9.442;2022-09-01T00:14:21;18.88;;;14.68;;
19973;SDS011;10148;47.694;9.442;2022-09-01T00:16:49;17.35;;;14.18;;
19973;SDS011;10148;47.694;9.442;2022-09-01T00:19:15;18.30;;;14.48;;
19973;SDS011;10148;47.694;9.442;2022-09-01T00:21:41;19.00;;;15.05;;
19973;SDS011;10148;47.694;9.442;2022-09-01T00:24:09;19.83;;;14.40;;
19973;SDS011;10148;47.694;9.442;2022-09-01T00:26:36;21.80;;;16.20;;
19973;SDS011;10148;47.694;9.442;2022-09-01T00:29:02;19.55;;;15.80;;
19973;SDS011;10148;47.694;9.442;2022-09-01T00:31:29;22.25;;;17.13;;
19973;SDS011;10148;47.694;9.442;2022-09-01T00:33:55;20.73;;;16.63;;
19973;SDS011;10148;47.694;9.442;2022-09-01T00:36:20;22.35;;;17.23;;
19973;SDS011;10148;47.694;9.442;2022-09-01T00:38:46;21.55;;;17.50;;
19973;SDS011;10148;47.694;9.442;2022-09-01T00:41:14;22.85;;;17.23;;
19973;SDS011;10148;47.694;9.442;2022-09-01T00:46:21;20.77;;;16.92;;
19973;SDS011;10148;47.694;9.442;2022-09-01T00:48:53;20.67;;;16.85;;
19973;SDS011;10148;47.694;9.442;2022-09-01T00:51:42;23.77;;;17.48;;
19973;SDS011;10148;47.694;9.442;2022-09-01T00:54:11;25.42;;;18.10;;
19973;SDS011;10148;47.694;9.442;2022-09-01T00:56:39;23.15;;;17.38;;
19973;SDS011;10148;47.694;9.442;2022-09-01T00:59:06;23.98;;;17.42;;
19973;SDS011;10148;47.694;9.442;2022-09-01T01:01:34;23.73;;;17.42;;
19973;SDS011;10148;47.694;9.442;2022-09-01T01:04:01;23.67;;;18.50;;
19973;SDS011;10148;47.694;9.442;2022-09-01T01:06:27;23.55;;;17.98;;
19973;SDS011;10148;47.694;9.442;2022-09-01T01:08:56;23.48;;;18.20;;
19973;SDS011;10148;47.694;9.442;2022-09-01T01:11:24;23.58;;;17.55;;
19973;SDS011;10148;47.694;9.442;2022-09-01T01:14:01;23.95;;;18.05;;
19973;SDS011;10148;47.694;9.442;2022-09-01T01:16:36;22.88;;;16.40;;
19973;SDS011;10148;47.694;9.442;2022-09-01T01:22:09;23.23;;;17.45;;
19973;SDS011;10148;47.694;9.442;2022-09-01T01:24:59;23.05;;;17.38;;
19973;SDS011;10148;47.694;9.442;2022-09-01T01:27:29;23.77;;;16.58;;
19973;SDS011;10148;47.694;9.442;2022-09-01T01:29:59;20.67;;;16.65;;
19973;SDS011;10148;47.694;9.442;2022-09-01T01:32:25;21.05;;;15.77;;
19973;SDS011;10148;47.694;9.442;2022-09-01T01:34:53;21.50;;;15.63;;
19973;SDS011;10148;47.694;9.442;2022-09-01T01:37:18;21.15;;;16.33;;
19973;SDS011;10148;47.694;9.442;2022-09-01T01:39:48;19.27;;;14.40;;
19973;SDS011;10148;47.694;9.442;2022-09-01T01:42:13;17.38;;;14.13;;
19973;SDS011;10148;47.694;9.442;2022-09-01T01:44:39;20.50;;;15.30;;
19973;SDS011;10148;47.694;9.442;2022-09-01T01:47:07;18.55;;;15.00;;
19973;SDS011;10148;47.694;9.442;2022-09-01T01:49:36;21.33;;;15.20;;
19973;SDS011;10148;47.694;9.442;2022-09-01T01:52:07;19.23;;;15.57;;
19973;SDS011;10148;47.694;9.442;2022-09-01T01:54:35;20.65;;;14.23;;
19973;SDS011;10148;47.694;9.442;2022-09-01T01:57:02;19.75;;;15.43;;
19973;SDS011;10148;47.694;9.442;2022-09-01T01:59:28;18.98;;;14.98;;
19973;SDS011;10148;47.694;9.442;2022-09-01T02:01:54;18.75;;;15.20;;
19973;SDS011;10148;47.694;9.442;2022-09-01T02:04:20;20.05;;;15.52;;
19973;SDS011;10148;47.694;9.442;2022-09-01T02:06:47;19.88;;;15.43;;
19973;SDS011;10148;47.694;9.442;2022-09-01T02:09:14;18.00;;;14.52;;
19973;SDS011;10148;47.694;9.442;2022-09-01T02:11:42;20.83;;;15.63;;
19973;SDS011;10148;47.694;9.442;2022-09-01T02:14:09;21.60;;;16.45;;
19973;SDS011;10148;47.694;9.442;2022-09-01T02:16:37;20.35;;;15.82;;
19973;SDS011;10148;47.694;9.442;2022-09-01T02:19:04;23.20;;;15.77;;
19973;SDS011;10148;47.694;9.442;2022-09-01T02:21:31;22.02;;;16.33;;
19973;SDS011;10148;47.694;9.442;2022-09-01T02:24:01;20.05;;;15.02;;
19973;SDS011;10148;47.694;9.442;2022-09-01T02:26:32;21.10;;;15.50;;
19973;SDS011;10148;47.694;9.442;2022-09-01T02:29:03;20.15;;;15.27;;
19973;SDS011;10148;47.694;9.442;2022-09-01T02:31:31;20.35;;;16.42;;
19973;SDS011;10148;47.694;9.442;2022-09-01T02:33:59;21.10;;;14.93;;
19973;SDS011;10148;47.694;9.442;2022-09-01T02:36:25;21.05;;;15.75;;
19973;SDS011;10148;47.694;9.442;2022-09-01T02:38:51;22.85;;;16.05;;
19973;SDS011;10148;47.694;9.442;2022-09-01T02:41:18;22.02;;;16.83;;
19973;SDS011;10148;47.694;9.442;2022-09-01T02:43:44;21.17;;;16.08;;
19973;SDS011;10148;47.694;9.442;2022-09-01T02:46:10;20.60;;;15.77;;
19973;SDS011;10148;47.694;9.442;2022-09-01T02:48:38;20.90;;;15.63;;
19973;SDS011;10148;47.694;9.442;2022-09-01T02:51:09;21.10;;;15.35;;
19973;SDS011;10148;47.694;9.442;2022-09-01T02:53:38;20.88;;;15.15;;
19973;SDS011;10148;47.694;9.442;2022-09-01T02:56:07;21.38;;;15.95;;
19973;SDS011;10148;47.694;9.442;2022-09-01T02:58:36;20.70;;;16.25;;
19973;SDS011;10148;47.694;9.442;2022-09-01T03:01:13;20.05;;;15.20;;
19973;SDS011;10148;47.694;9.442;2022-09-01T03:03:46;20.10;;;15.30;;
19973;SDS011;10148;47.694;9.442;2022-09-01T03:06:12;19.30;;;14.85;;
19973;SDS011;10148;47.694;9.442;2022-09-01T03:08:38;20.85;;;15.82;;
19973;SDS011;10148;47.694;9.442;2022-09-01T03:11:05;18.90;;;14.35;;
19973;SDS011;10148;47.694;9.442;2022-09-01T03:13:36;17.42;;;13.65;;
19973;SDS011;10148;47.694;9.442;2022-09-01T03:16:03;21.15;;;15.30;;
19973;SDS011;10148;47.694;9.442;2022-09-01T03:18:29;18.73;;;14.77;;
19973;SDS011;10148;47.694;9.442;2022-09-01T03:20:55;18.83;;;14.43;;
19973;SDS011;10148;47.694;9.442;2022-09-01T03:23:21;19.48;;;15.02;;
19973;SDS011;10148;47.694;9.442;2022-09-01T03:25:49;17.75;;;13.95;;
19973;SDS011;10148;47.694;9.442;2022-09-01T03:28:15;18.98;;;15.00;;
19973;SDS011;10148;47.694;9.442;2022-09-01T03:30:50;16.95;;;13.85;;
19973;SDS011;10148;47.694;9.442;2022-09-01T03:33:19;18.92;;;14.50;;
19973;SDS011;10148;47.694;9.442;2022-09-01T03:35:47;17.23;;;13.73;;
19973;SDS011;10148;47.694;9.442;2022-09-01T03:38:13;17.23;;;12.32;;
19973;SDS011;10148;47.694;9.442;2022-09-01T03:40:46;17.17;;;13.43;;
19973;SDS011;10148;47.694;9.442;2022-09-01T03:43:13;16.95;;;12.63;;
19973;SDS011;10148;47.694;9.442;2022-09-01T03:45:41;17.60;;;12.63;;
19973;SDS011;10148;47.694;9.442;2022-09-01T03:48:07;15.80;;;12.15;;
19973;SDS011;10148;47.694;9.442;2022-09-01T03:50:35;20.42;;;12.77;;
19973;SDS011;10148;47.694;9.442;2022-09-01T03:53:09;15.95;;;11.98;;
19973;SDS011;10148;47.694;9.442;2022-09-01T03:55:36;15.45;;;11.93;;
19973;SDS011;10148;47.694;9.442;2022-09-01T03:58:07;15.27;;;11.50;;
19973;SDS011;10148;47.694;9.442;2022-09-01T04:00:34;15.65;;;11.82;;
19973;SDS011;10148;47.694;9.442;2022-09-01T04:03:05;14.73;;;11.85;;
19973;SDS011;10148;47.694;9.442;2022-09-01T04:05:33;14.25;;;11.43;;
19973;SDS011;10148;47.694;9.442;2022-09-01T04:08:02;13.85;;;11.48;;
19973;SDS011;10148;47.694;9.442;2022-09-01T04:10:31;15.00;;;11.40;;
19973;SDS011;10148;47.694;9.442;2022-09-01T04:12:59;13.88;;;11.27;;
19973;SDS011;10148;47.694;9.442;2022-09-01T04:15:25;13.50;;;11.10;;
19973;SDS011;10148;47.694;9.442;2022-09-01T04:17:52;14.38;;;11.70;;
19973;SDS011;10148;47.694;9.442;2022-09-01T04:20:35;16.65;;;10.93;;
19973;SDS011;10148;47.694;9.442;2022-09-01T04:23:18;13.23;;;10.38;;
19973;SDS011;10148;47.694;9.442;2022-09-01T04:25:55;15.95;;;11.40;;
19973;SDS011;10148;47.694;9.442;2022-09-01T04:28:24;14.50;;;11.52;;
19973;SDS011;10148;47.694;9.442;2022-09-01T04:31:00;16.60;;;11.60;;
19973;SDS011;10148;47.694;9.442;2022-09-01T04:33:29;15.75;;;10.95;;
19973;SDS011;10148;47.694;9.442;2022-09-01T04:36:02;14.15;;;10.80;;
19973;SDS011;10148;47.694;9.442;2022-09-01T04:38:29;15.25;;;11.43;;
19973;SDS011;10148;47.694;9.442;2022-09-01T04:40:55;15.55;;;11.23;;
19973;SDS011;10148;47.694;9.442;2022-09-01T04:43:24;13.57;;;11.05;;
19973;SDS011;10148;47.694;9.442;2022-09-01T04:45:50;17.27;;;12.18;;
19973;SDS011;10148;47.694;9.442;2022-09-01T04:48:18;15.98;;;12.88;;
19973;SDS011;10148;47.694;9.442;2022-09-01T04:50:44;15.23;;;11.60;;
19973;SDS011;10148;47.694;9.442;2022-09-01T04:53:11;16.35;;;12.27;;
19973;SDS011;10148;47.694;9.442;2022-09-01T04:55:40;16.85;;;13.30;;
19973;SDS011;10148;47.694;9.442;2022-09-01T04:58:09;15.55;;;11.73;;
19973;SDS011;10148;47.694;9.442;2022-09-01T05:00:38;17.95;;;13.63;;
19973;SDS011;10148;47.694;9.442;2022-09-01T05:03:04;16.02;;;12.05;;
19973;SDS011;10148;47.694;9.442;2022-09-01T05:05:42;17.13;;;12.80;;
19973;SDS011;10148;47.694;9.442;2022-09-01T05:08:10;16.27;;;12.13;;
19973;SDS011;10148;47.694;9.442;2022-09-01T05:10:43;15.38;;;12.32;;
19973;SDS011;10148;47.694;9.442;2022-09-01T05:13:11;18.00;;;13.50;;
19973;SDS011;10148;47.694;9.442;2022-09-01T05:15:41;16.38;;;12.40;;
19973;SDS011;10148;47.694;9.442;2022-09-01T05:18:15;16.60;;;12.13;;
19973;SDS011;10148;47.694;9.442;2022-09-01T05:20:47;17.38;;;12.73;;
19973;SDS011;10148;47.694;9.442;2022-09-01T05:23:13;17.40;;;13.15;;
19973;SDS011;10148;47.694;9.442;2022-09-01T05:25:43;16.65;;;12.50;;
19973;SDS011;10148;47.694;9.442;2022-09-01T05:28:10;18.08;;;12.60;;
19973;SDS011;10148;47.694;9.442;2022-09-01T05:30:40;16.73;;;12.95;;
19973;SDS011;10148;47.694;9.442;2022-09-01T05:33:07;17.15;;;13.10;;
19973;SDS011;10148;47.694;9.442;2022-09-01T05:35:40;15.93;;;12.02;;
19973;SDS011;10148;47.694;9.442;2022-09-01T05:38:16;15.48;;;12.15;;
19973;SDS011;10148;47.694;9.442;2022-09-01T05:40:42;15.95;;;12.68;;
19973;SDS011;10148;47.694;9.442;2022-09-01T05:43:09;17.85;;;12.32;;
19973;SDS011;10148;47.694;9.442;2022-09-01T05:45:37;18.17;;;13.15;;
19973;SDS011;10148;47.694;9.442;2022-09-01T05:48:10;17.58;;;13.35;;
19973;SDS011;10148;47.694;9.442;2022-09-01T05:50:38;16.75;;;12.60;;
19973;SDS011;10148;47.694;9.442;2022-09-01T05:53:06;14.82;;;12.05;;
19973;SDS011;10148;47.694;9.442;2022-09-01T05:55:44;14.43;;;11.63;;
19973;SDS011;10148;47.694;9.442;2022-09-01T05:58:12;15.13;;;12.02;;
19973;SDS011;10148;47.694;9.442;2022-09-01T06:00:40;16.83;;;12.82;;
19973;SDS011;10148;47.694;9.442;2022-09-01T06:03:07;16.02;;;12.27;;
19973;SDS011;10148;47.694;9.442;2022-09-01T06:05:36;14.32;;;11.20;;
19973;SDS011;10148;47.694;9.442;2022-09-01T06:08:03;13.73;;;10.38;;
19973;SDS011;10148;47.694;9.442;2022-09-01T06:10:31;13.13;;;10.38;;
19973;SDS011;10148;47.694;9.442;2022-09-01T06:12:57;13.85;;;10.80;;
19973;SDS011;10148;47.694;9.442;2022-09-01T06:15:26;13.27;;;9.98;;
19973;SDS011;10148;47.694;9.442;2022-09-01T06:17:53;11.98;;;10.18;;
19973;SDS011;10148;47.694;9.442;2022-09-01T06:20:19;13.73;;;9.90;;
19973;SDS011;10148;47.694;9.442;2022-09-01T06:22:46;12.95;;;10.20;;
19973;SDS011;10148;47.694;9.442;2022-09-01T06:25:12;12.18;;;9.82;;
19973;SDS011;10148;47.694;9.442;2022-09-01T06:27:41;11.00;;;9.15;;
19973;SDS011;10148;47.694;9.442;2022-09-01T06:30:08;12.20;;;8.82;;
19973;SDS011;10148;47.694;9.442;2022-09-01T06:32:40;9.90;;;8.70;;
19973;SDS011;10148;47.694;9.442;2022-09-01T06:35:08;12.45;;;9.52;;
19973;SDS011;10148;47.694;9.442;2022-09-01T06:37:39;12.98;;;8.68;;
19973;SDS011;10148;47.694;9.442;2022-09-01T06:40:07;10.48;;;8.88;;
19973;SDS011;10148;47.694;9.442;2022-09-01T06:42:34;10.38;;;9.02;;
19973;SDS011;10148;47.694;9.442;2022-09-01T06:45:01;9.90;;;8.27;;
19973;SDS011;10148;47.694;9.442;2022-09-01T06:47:27;11.40;;;8.27;;
19973;SDS011;10148;47.694;9.442;2022-09-01T06:49:53;10.05;;;8.50;;
19973;SDS011;10148;47.694;9.442;2022-09-01T06:52:23;10.48;;;8.90;;
19973;SDS011;10148;47.694;9.442;2022-09-01T06:54:50;10.85;;;8.35;;
19973;SDS011;10148;47.694;9.442;2022-09-01T06:57:18;10.50;;;8.40;;
19973;SDS011;10148;47.694;9.442;2022-09-01T06:59:45;10.77;;;8.07;;
19973;SDS011;10148;47.694;9.442;2022-09-01T07:02:11;10.50;;;8.50;;
19973;SDS011;10148;47.694;9.442;2022-09-01T07:04:40;9.05;;;7.68;;
19973;SDS011;10148;47.694;9.442;2022-09-01T07:07:08;8.82;;;7.35;;
19973;SDS011;10148;47.694;9.442;2022-09-01T07:09:35;9.68;;;7.75;;
19973;SDS011;10148;47.694;9.442;2022-09-01T07:12:01;9.77;;;7.57;;
19973;SDS011;10148;47.694;9.442;2022-09-01T07:14:28;8.02;;;7.18;;
19973;SDS011;10148;47.694;9.442;2022-09-01T07:16:54;8.65;;;7.30;;
19973;SDS011;10148;47.694;9.442;2022-09-01T07:19:19;9.80;;;6.97;;
19973;SDS011;10148;47.694;9.442;2022-09-01T07:21:45;8.45;;;6.28;;
19973;SDS011;10148;47.694;9.442;2022-09-01T07:24:11;8.30;;;6.55;;
19973;SDS011;10148;47.694;9.442;2022-09-01T07:26:42;8.32;;;6.50;;
19973;SDS011;10148;47.694;9.442;2022-09-01T07:29:09;8.30;;;5.85;;
19973;SDS011;10148;47.694;9.442;2022-09-01T07:31:36;7.57;;;5.63;;
19973;SDS011;10148;47.694;9.442;2022-09-01T07:34:06;6.63;;;5.80;;
19973;SDS011;10148;47.694;9.442;2022-09-01T07:36:34;8.32;;;5.95;;
19973;SDS011;10148;47.694;9.442;2022-09-01T07:39:01;16.13;;;12.52;;
19973;SDS011;10148;47.694;9.442;2022-09-01T07:41:27;6.47;;;5.70;;
19973;SDS011;10148;47.694;9.442;2022-09-01T07:43:53;6.43;;;5.72;;
19973;SDS011;10148;47.694;9.442;2022-09-01T07:46:21;7.78;;;5.80;;
19973;SDS011;10148;47.694;9.442;2022-09-01T07:48:48;6.43;;;5.05;;
19973;SDS011;10148;47.694;9.442;2022-09-01T07:51:15;6.00;;;4.82;;
19973;SDS011;10148;47.694;9.442;2022-09-01T07:53:44;6.93;;;5.35;;
19973;SDS011;10148;47.694;9.442;2022-09-01T07:56:12;6.15;;;4.63;;
19973;SDS011;10148;47.694;9.442;2022-09-01T07:58:39;5.80;;;4.70;;
19973;SDS011;10148;47.694;9.442;2022-09-01T08:01:09;5.40;;;4.88;;
19973;SDS011;10148;47.694;9.442;2022-09-01T08:03:37;5.50;;;4.80;;
19973;SDS011;10148;47.694;9.442;2022-09-01T08:06:08;7.28;;;5.00;;
19973;SDS011;10148;47.694;9.442;2022-09-01T08:08:36;5.10;;;4.60;;
19973;SDS011;10148;47.694;9.442;2022-09-01T08:11:04;4.85;;;4.35;;
19973;SDS011;10148;47.694;9.442;2022-09-01T08:13:32;5.07;;;4.57;;
19973;SDS011;10148;47.694;9.442;2022-09-01T08:15:58;4.43;;;3.88;;
19973;SDS011;10148;47.694;9.442;2022-09-01T08:18:26;5.70;;;4.30;;
19973;SDS011;10148;47.694;9.442;2022-09-01T08:20:52;5.15;;;4.13;;
19973;SDS011;10148;47.694;9.442;2022-09-01T08:23:18;4.45;;;3.90;;
19973;SDS011;10148;47.694;9.442;2022-09-01T08:25:45;4.32;;;3.92;;
19973;SDS011;10148;47.694;9.442;2022-09-01T08:28:11;5.43;;;4.40;;
19973;SDS011;10148;47.694;9.442;2022-09-01T08:30:39;5.03;;;3.92;;
19973;SDS011;10148;47.694;9.442;2022-09-01T08:33:06;6.55;;;4.20;;
19973;SDS011;10148;47.694;9.442;2022-09-01T08:35:36;5.05;;;4.40;;
19973;SDS011;10148;47.694;9.442;2022-09-01T08:38:05;5.00;;;4.50;;
19973;SDS011;10148;47.694;9.442;2022-09-01T08:40:31;4.15;;;3.35;;
19973;SDS011;10148;47.694;9.442;2022-09-01T08:43:04;3.75;;;3.08;;
19973;SDS011;10148;47.694;9.442;2022-09-01T08:48:25;13.43;;;4.60;;
19973;SDS011;10148;47.694;9.442;2022-09-01T08:50:59;3.15;;;2.85;;
19973;SDS011;10148;47.694;9.442;2022-09-01T08:54:20;3.65;;;3.22;;
19973;SDS011;10148;47.694;9.442;2022-09-01T08:56:25;4.82;;;3.35;;
19973;SDS011;10148;47.694;9.442;2022-09-01T08:58:51;3.92;;;3.47;;
19973;SDS011;10148;47.694;9.442;2022-09-01T09:01:30;3.63;;;3.25;;
19973;SDS011;10148;47.694;9.442;2022-09-01T09:04:12;3.40;;;3.10;;
19973;SDS011;10148;47.694;9.442;2022-09-01T09:07:11;4.20;;;3.80;;
19973;SDS011;10148;47.694;9.442;2022-09-01T09:10:05;2.97;;;2.78;;
19973;SDS011;10148;47.694;9.442;2022-09-01T09:12:58;4.03;;;2.83;;
19973;SDS011;10148;47.694;9.442;2022-09-01T09:15:42;3.75;;;3.45;;
19973;SDS011;10148;47.694;9.442;2022-09-01T09:18:24;3.20;;;2.90;;
19973;SDS011;10148;47.694;9.442;2022-09-01T09:20:54;3.30;;;3.00;;
19973;SDS011;10148;47.694;9.442;2022-09-01T09:23:29;3.45;;;2.65;;
19973;SDS011;10148;47.694;9.442;2022-09-01T09:25:58;3.13;;;2.83;;
19973;SDS011;10148;47.694;9.442;2022-09-01T09:28:23;3.05;;;2.60;;
19973;SDS011;10148;47.694;9.442;2022-09-01T09:30:49;3.17;;;2.70;;
19973;SDS011;10148;47.694;9.442;2022-09-01T09:33:35;3.20;;;2.60;;
19973;SDS011;10148;47.694;9.442;2022-09-01T09:36:16;2.20;;;1.95;;
19973;SDS011;10148;47.694;9.442;2022-09-01T09:38:43;2.92;;;2.40;;
19973;SDS011;10148;47.694;9.442;2022-09-01T09:43:47;2.08;;;1.95;;
19973;SDS011;10148;47.694;9.442;2022-09-01T09:51:49;3.13;;;2.50;;
19973;SDS011;10148;47.694;9.442;2022-09-01T09:54:28;2.78;;;2.58;;
19973;SDS011;10148;47.694;9.442;2022-09-01T09:57:08;4.32;;;2.97;;
19973;SDS011;10148;47.694;9.442;2022-09-01T10:02:22;3.38;;;2.20;;
19973;SDS011;10148;47.694;9.442;2022-09-01T10:04:49;3.13;;;2.50;;
19973;SDS011;10148;47.694;9.442;2022-09-01T10:07:22;3.20;;;2.90;;
19973;SDS011;10148;47.694;9.442;2022-09-01T10:09:55;4.15;;;3.85;;
19973;SDS011;10148;47.694;9.442;2022-09-01T10:12:24;2.63;;;2.33;;
19973;SDS011;10148;47.694;9.442;2022-09-01T10:14:52;2.20;;;2.00;;
19973;SDS011;10148;47.694;9.442;2022-09-01T10:17:31;2.30;;;2.10;;
19973;SDS011;10148;47.694;9.442;2022-09-01T10:20:06;2.40;;;2.20;;
19973;SDS011;10148;47.694;9.442;2022-09-01T10:22:37;2.72;;;2.53;;
19973;SDS011;10148;47.694;9.442;2022-09-01T10:25:04;2.42;;;2.22;;
19973;SDS011;10148;47.694;9.442;2022-09-01T10:27:32;3.80;;;2.40;;
19973;SDS011;10148;47.694;9.442;2022-09-01T10:32:31;2.90;;;2.70;;
19973;SDS011;10148;47.694;9.442;2022-09-01T10:35:02;2.92;;;2.70;;
19973;SDS011;10148;47.694;9.442;2022-09-01T10:37:29;3.20;;;2.95;;
19973;SDS011;10148;47.694;9.442;2022-09-01T10:42:44;2.85;;;2.58;;
19973;SDS011;10148;47.694;9.442;2022-09-01T10:45:15;3.75;;;2.45;;
19973;SDS011;10148;47.694;9.442;2022-09-01T10:50:48;6.22;;;3.35;;
19973;SDS011;10148;47.694;9.442;2022-09-01T10:56:10;2.17;;;1.98;;
19973;SDS011;10148;47.694;9.442;2022-09-01T10:58:44;2.20;;;2.00;;
19973;SDS011;10148;47.694;9.442;2022-09-01T11:01:40;3.97;;;2.28;;
19973;SDS011;10148;47.694;9.442;2022-09-01T11:04:03;2.40;;;2.20;;
19973;SDS011;10148;47.694;9.442;2022-09-01T11:09:06;2.13;;;1.92;;
19973;SDS011;10148;47.694;9.442;2022-09-01T11:12:30;2.03;;;1.83;;
19973;SDS011;10148;47.694;9.442;2022-09-01T11:17:35;1.98;;;1.67;;
19973;SDS011;10148;47.694;9.442;2022-09-01T11:22:37;2.42;;;2.20;;
19973;SDS011;10148;47.694;9.442;2022-09-01T11:32:56;2.00;;;1.80;;
19973;SDS011;10148;47.694;9.442;2022-09-01T11:35:26;3.30;;;1.42;;
19973;SDS011;10148;47.694;9.442;2022-09-01T11:37:56;2.00;;;1.80;;
19973;SDS011;10148;47.694;9.442;2022-09-01T11:40:29;2.17;;;1.98;;
19973;SDS011;10148;47.694;9.442;2022-09-01T11:42:56;3.05;;;2.03;;
19973;SDS011;10148;47.694;9.442;2022-09-01T11:45:26;2.50;;;2.03;;
19973;SDS011;10148;47.694;9.442;2022-09-01T11:47:57;2.00;;;1.80;;
19973;SDS011;10148;47.694;9.442;2022-09-01T11:51:00;3.97;;;2.65;;
19973;SDS011;10148;47.694;9.442;2022-09-01T11:53:25;2.47;;;2.28;;
19973;SDS011;10148;47.694;9.442;2022-09-01T11:55:53;2.58;;;2.35;;
19973;SDS011;10148;47.694;9.442;2022-09-01T12:00:54;2.13;;;1.92;;
19973;SDS011;10148;47.694;9.442;2022-09-01T12:05:56;3.20;;;2.10;;
19973;SDS011;10148;47.694;9.442;2022-09-01T12:08:26;2.13;;;1.92;;
19973;SDS011;10148;47.694;9.442;2022-09-01T12:11:17;2.63;;;1.70;;
19973;SDS011;10148;47.694;9.442;2022-09-01T12:13:57;1.77;;;1.67;;
19973;SDS011;10148;47.694;9.442;2022-09-01T12:16:23;2.00;;;1.80;;
19973;SDS011;10148;47.694;9.442;2022-09-01T12:18:49;2.03;;;1.83;;
19973;SDS011;10148;47.694;9.442;2022-09-01T12:21:25;2.00;;;1.80;;
19973;SDS011;10148;47.694;9.442;2022-09-01T12:23:53;1.92;;;1.83;;
19973;SDS011;10148;47.694;9.442;2022-09-01T12:26:34;2.50;;;1.90;;
19973;SDS011;10148;47.694;9.442;2022-09-01T12:28:59;2.10;;;2.00;;
19973;SDS011;10148;47.694;9.442;2022-09-01T12:31:25;1.85;;;1.75;;
19973;SDS011;10148;47.694;9.442;2022-09-01T12:33:51;2.70;;;2.50;;
19973;SDS011;10148;47.694;9.442;2022-09-01T12:50:43;2.88;;;2.28;;
19973;SDS011;10148;47.694;9.442;2022-09-01T12:52:51;1.90;;;1.73;;
19973;SDS011;10148;47.694;9.442;2022-09-01T12:55:21;2.00;;;1.80;;
19973;SDS011;10148;47.694;9.442;2022-09-01T12:57:52;1.70;;;1.52;;
19973;SDS011;10148;47.694;9.442;2022-09-01T13:00:20;1.63;;;1.52;;
19973;SDS011;10148;47.694;9.442;2022-09-01T13:02:50;2.30;;;1.60;;
19973;SDS011;10148;47.694;9.442;2022-09-01T13:05:20;2.10;;;1.52;;
19973;SDS011;10148;47.694;9.442;2022-09-01T13:07:53;1.50;;;1.40;;
19973;SDS011;10148;47.694;9.442;2022-09-01T13:10:21;1.92;;;1.75;;
19973;SDS011;10148;47.694;9.442;2022-09-01T13:12:49;2.17;;;1.65;;
19973;SDS011;10148;47.694;9.442;2022-09-01T13:15:15;1.67;;;1.58;;
19973;SDS011;10148;47.694;9.442;2022-09-01T13:17:42;2.05;;;1.77;;
19973;SDS011;10148;47.694;9.442;2022-09-01T13:20:08;2.75;;;1.48;;
19973;SDS011;10148;47.694;9.442;2022-09-01T13:22:36;2.08;;;1.70;;
19973;SDS011;10148;47.694;9.442;2022-09-01T13:25:02;2.03;;;1.83;;
19973;SDS011;10148;47.694;9.442;2022-09-01T13:27:28;2.13;;;1.80;;
19973;SDS011;10148;47.694;9.442;2022-09-01T13:29:54;1.80;;;1.70;;
19973;SDS011;10148;47.694;9.442;2022-09-01T13:32:20;2.42;;;2.00;;
19973;SDS011;10148;47.694;9.442;2022-09-01T13:34:48;2.35;;;1.88;;
19973;SDS011;10148;47.694;9.442;2022-09-01T13:37:15;2.25;;;2.03;;
19973;SDS011;10148;47.694;9.442;2022-09-01T13:39:40;1.83;;;1.73;;
19973;SDS011;10148;47.694;9.442;2022-09-01T13:42:06;1.70;;;1.60;;
19973;SDS011;10148;47.694;9.442;2022-09-01T13:44:31;2.00;;;1.73;;
19973;SDS011;10148;47.694;9.442;2022-09-01T13:46:57;1.83;;;1.73;;
19973;SDS011;10148;47.694;9.442;2022-09-01T13:49:23;2.15;;;1.95;;
19973;SDS011;10148;47.694;9.442;2022-09-01T13:51:50;1.70;;;1.60;;
19973;SDS011;10148;47.694;9.442;2022-09-01T13:54:16;1.85;;;1.75;;
19973;SDS011;10148;47.694;9.442;2022-09-01T13:56:42;2.50;;;1.98;;
19973;SDS011;10148;47.694;9.442;2022-09-01T13:59:08;2.60;;;1.80;;
19973;SDS011;10148;47.694;9.442;2022-09-01T14:01:33;1.90;;;1.80;;
19973;SDS011;10148;47.694;9.442;2022-09-01T14:03:59;2.05;;;1.85;;
19973;SDS011;10148;47.694;9.442;2022-09-01T14:06:24;1.83;;;1.73;;
19973;SDS011;10148;47.694;9.442;2022-09-01T14:08:50;2.10;;;1.65;;
19973;SDS011;10148;47.694;9.442;2022-09-01T14:11:17;1.60;;;1.50;;
19973;SDS011;10148;47.694;9.442;2022-09-01T14:13:43;2.60;;;1.70;;
19973;SDS011;10148;47.694;9.442;2022-09-01T14:16:10;1.50;;;1.40;;
19973;SDS011;10148;47.694;9.442;2022-09-01T14:18:37;1.65;;;1.55;;
19973;SDS011;10148;47.694;9.442;2022-09-01T14:21:03;2.17;;;1.70;;
19973;SDS011;10148;47.694;9.442;2022-09-01T14:23:30;2.03;;;1.73;;
19973;SDS011;10148;47.694;9.442;2022-09-01T14:25:55;3.65;;;1.70;;
19973;SDS011;10148;47.694;9.442;2022-09-01T14:28:22;1.77;;;1.48;;
19973;SDS011;10148;47.694;9.442;2022-09-01T14:30:49;1.67;;;1.58;;
19973;SDS011;10148;47.694;9.442;2022-09-01T14:33:15;1.38;;;1.23;;
19973;SDS011;10148;47.694;9.442;2022-09-01T14:35:42;1.63;;;1.42;;
19973;SDS011;10148;47.694;9.442;2022-09-01T14:38:11;1.90;;;1.80;;
19973;SDS011;10148;47.694;9.442;2022-09-01T14:40:37;2.15;;;1.95;;
19973;SDS011;10148;47.694;9.442;2022-09-01T14:43:07;1.85;;;1.75;;
19973;SDS011;10148;47.694;9.442;2022-09-01T14:45:39;1.50;;;1.40;;
19973;SDS011;10148;47.694;9.442;2022-09-01T14:48:08;2.10;;;1.63;;
19973;SDS011;10148;47.694;9.442;2022-09-01T14:50:37;1.55;;;1.42;;
19973;SDS011;10148;47.694;9.442;2022-09-01T14:53:05;2.15;;;1.92;;
19973;SDS011;10148;47.694;9.442;2022-09-01T14:55:30;2.00;;;1.80;;
19973;SDS011;10148;47.694;9.442;2022-09-01T14:57:56;2.22;;;2.03;;
19973;SDS011;10148;47.694;9.442;2022-09-01T15:00:23;2.85;;;1.92;;
19973;SDS011;10148;47.694;9.442;2022-09-01T15:02:49;3.28;;;1.80;;
19973;SDS011;10148;47.694;9.442;2022-09-01T15:05:15;2.22;;;2.05;;
19973;SDS011;10148;47.694;9.442;2022-09-01T15:07:41;2.10;;;1.70;;
19973;SDS011;10148;47.694;9.442;2022-09-01T15:10:07;2.90;;;1.80;;
19973;SDS011;10148;47.694;9.442;2022-09-01T15:12:34;2.30;;;1.95;;
19973;SDS011;10148;47.694;9.442;2022-09-01T15:15:01;2.35;;;1.83;;
19973;SDS011;10148;47.694;9.442;2022-09-01T15:17:27;2.58;;;1.90;;
19973;SDS011;10148;47.694;9.442;2022-09-01T15:19:53;2.30;;;2.10;;
19973;SDS011;10148;47.694;9.442;2022-09-01T15:22:19;2.40;;;2.20;;
19973;SDS011;10148;47.694;9.442;2022-09-01T15:24:45;2.05;;;1.95;;
19973;SDS011;10148;47.694;9.442;2022-09-01T15:27:10;2.40;;;2.15;;
19973;SDS011;10148;47.694;9.442;2022-09-01T15:29:36;2.33;;;1.88;;
19973;SDS011;10148;47.694;9.442;2022-09-01T15:32:09;3.63;;;2.35;;
19973;SDS011;10148;47.694;9.442;2022-09-01T15:34:35;2.65;;;2.10;;
19973;SDS011;10148;47.694;9.442;2022-09-01T15:37:01;2.83;;;2.20;;
19973;SDS011;10148;47.694;9.442;2022-09-01T15:39:26;2.50;;;2.10;;
19973;SDS011;10148;47.694;9.442;2022-09-01T15:41:53;2.25;;;2.05;;
19973;SDS011;10148;47.694;9.442;2022-09-01T15:44:18;2.33;;;2.13;;
19973;SDS011;10148;47.694;9.442;2022-09-01T15:46:44;2.72;;;1.95;;
19973;SDS011;10148;47.694;9.442;2022-09-01T15:49:10;2.40;;;2.20;;
19973;SDS011;10148;47.694;9.442;2022-09-01T15:51:36;2.20;;;2.00;;
19973;SDS011;10148;47.694;9.442;2022-09-01T15:54:13;1.88;;;1.70;;